sensor_id;sensor_type;location;lat;lon;timestamp;pressure;altitude;pressure_sealevel;temperature;humidity
34500;BME280;20745;50.882;6.962;2022-12-31T00:02:24;99971.03;;;13.53;100.00
34500;BME280;20745;50.882;6.962;2022-12-31T00:04:52;99970.16;;;13.59;100.00
34500;BME280;20745;50.882;6.962;2022-12-31T00:07:19;99965.97;;;13.63;100.00
34500;BME280;20745;50.882;6.962;2022-12-31T00:09:45;99967.63;;;13.64;100.00
34500;BME280;20745;50.882;6.962;2022-12-31T00:12:11;99967.63;;;13.64;100.00
34500;BME280;20745;50.882;6.962;2022-12-31T00:14:38;99953.44;;;13.62;100.00
34500;BME280;20745;50.882;6.962;2022-12-31T00:17:04;99956.31;;;13.67;100.00
34500;BME280;20745;50.882;6.962;2022-12-31T00:19:31;99960.47;;;13.69;100.00
34500;BME280;20745;50.882;6.962;2022-12-31T00:21:57;99964.63;;;13.72;100.00
34500;BME280;20745;50.882;6.962;2022-12-31T00:24:23;99965.91;;;13.69;100.00
34500;BME280;20745;50.882;6.962;2022-12-31T00:26:50;99966.31;;;13.73;100.00
34500;BME280;20745;50.882;6.962;2022-12-31T00:29:16;99960.81;;;13.79;100.00
34500;BME280;20745;50.882;6.962;2022-12-31T00:31:42;99969.53;;;13.88;100.00
34500;BME280;20745;50.882;6.962;2022-12-31T00:34:09;99959.44;;;13.95;100.00
34500;BME280;20745;50.882;6.962;2022-12-31T00:36:36;99956.69;;;14.01;100.00
34500;BME280;20745;50.882;6.962;2022-12-31T00:39:03;99963.09;;;14.07;100.00
34500;BME280;20745;50.882;6.962;2022-12-31T00:41:30;99961.81;;;14.09;100.00
34500;BME280;20745;50.882;6.962;2022-12-31T00:43:57;99968.53;;;14.07;100.00
34500;BME280;20745;50.882;6.962;2022-12-31T00:46:23;99965.75;;;14.13;100.00
34500;BME280;20745;50.882;6.962;2022-12-31T00:48:50;99966.81;;;14.12;100.00
34500;BME280;20745;50.882;6.962;2022-12-31T00:51:19;99959.06;;;14.16;100.00
34500;BME280;20745;50.882;6.962;2022-12-31T00:53:45;99946.50;;;14.15;100.00
34500;BME280;20745;50.882;6.962;2022-12-31T00:56:13;99950.91;;;14.16;100.00
34500;BME280;20745;50.882;6.962;2022-12-31T00:58:40;99941.53;;;14.12;100.00
34500;BME280;20745;50.882;6.962;2022-12-31T01:01:10;99949.00;;;14.16;100.00
34500;BME280;20745;50.882;6.962;2022-12-31T01:03:37;99952.56;;;14.17;100.00
34500;BME280;20745;50.882;6.962;2022-12-31T01:06:04;99953.38;;;14.17;100.00
34500;BME280;20745;50.882;6.962;2022-12-31T01:08:30;99952.13;;;14.20;100.00
34500;BME280;20745;50.882;6.962;2022-12-31T01:10:57;99951.06;;;14.21;100.00
34500;BME280;20745;50.882;6.962;2022-12-31T01:13:42;99945.59;;;14.27;100.00
34500;BME280;20745;50.882;6.962;2022-12-31T01:16:09;99951.28;;;14.26;100.00
34500;BME280;20745;50.882;6.962;2022-12-31T01:18:36;99943.03;;;14.32;100.00
34500;BME280;20745;50.882;6.962;2022-12-31T01:21:03;99945.53;;;14.34;100.00
34500;BME280;20745;50.882;6.962;2022-12-31T01:23:30;99949.53;;;14.31;100.00
34500;BME280;20745;50.882;6.962;2022-12-31T01:26:00;99952.03;;;14.33;100.00
34500;BME280;20745;50.882;6.962;2022-12-31T01:28:26;99948.25;;;14.34;100.00
34500;BME280;20745;50.882;6.962;2022-12-31T01:30:53;99957.03;;;14.36;100.00
34500;BME280;20745;50.882;6.962;2022-12-31T01:33:20;99954.31;;;14.36;100.00
34500;BME280;20745;50.882;6.962;2022-12-31T01:35:46;99946.75;;;14.38;100.00
34500;BME280;20745;50.882;6.962;2022-12-31T01:38:13;99942.97;;;14.39;100.00
34500;BME280;20745;50.882;6.962;2022-12-31T01:40:40;99940.25;;;14.39;100.00
34500;BME280;20745;50.882;6.962;2022-12-31T01:43:17;99939.78;;;14.42;100.00
34500;BME280;20745;50.882;6.962;2022-12-31T01:45:45;99945.63;;;14.45;100.00
34500;BME280;20745;50.882;6.962;2022-12-31T01:48:13;99954.63;;;14.46;100.00
34500;BME280;20745;50.882;6.962;2022-12-31T01:50:40;99972.78;;;14.45;100.00
34500;BME280;20745;50.882;6.962;2022-12-31T01:53:08;99976.56;;;14.44;100.00
34500;BME280;20745;50.882;6.962;2022-12-31T01:55:49;99979.97;;;14.40;100.00
34500;BME280;20745;50.882;6.962;2022-12-31T01:58:19;99977.81;;;14.42;100.00
34500;BME280;20745;50.882;6.962;2022-12-31T02:00:47;99974.66;;;14.45;100.00
34500;BME280;20745;50.882;6.962;2022-12-31T02:03:14;99984.50;;;14.46;100.00
34500;BME280;20745;50.882;6.962;2022-12-31T02:05:49;99983.47;;;14.40;100.00
34500;BME280;20745;50.882;6.962;2022-12-31T02:08:17;99973.69;;;14.39;100.00
34500;BME280;20745;50.882;6.962;2022-12-31T02:10:44;99970.28;;;14.44;100.00
34500;BME280;20745;50.882;6.962;2022-12-31T02:13:10;99975.50;;;14.45;100.00
34500;BME280;20745;50.882;6.962;2022-12-31T02:15:38;99976.94;;;14.48;100.00
34500;BME280;20745;50.882;6.962;2022-12-31T02:18:34;99967.72;;;14.49;100.00
34500;BME280;20745;50.882;6.962;2022-12-31T02:21:06;99964.19;;;14.48;100.00
34500;BME280;20745;50.882;6.962;2022-12-31T02:23:43;99965.22;;;14.47;100.00
34500;BME280;20745;50.882;6.962;2022-12-31T02:26:22;99962.22;;;14.55;100.00
34500;BME280;20745;50.882;6.962;2022-12-31T02:31:38;99970.16;;;14.75;100.00
34500;BME280;20745;50.882;6.962;2022-12-31T02:34:12;99979.16;;;14.76;100.00
34500;BME280;20745;50.882;6.962;2022-12-31T02:36:42;99976.34;;;14.82;100.00
34500;BME280;20745;50.882;6.962;2022-12-31T02:39:10;99976.97;;;14.84;100.00
34500;BME280;20745;50.882;6.962;2022-12-31T02:41:37;99976.19;;;14.95;100.00
34500;BME280;20745;50.882;6.962;2022-12-31T02:44:25;99978.47;;;14.98;100.00
34500;BME280;20745;50.882;6.962;2022-12-31T02:57:41;99981.25;;;15.10;100.00
34500;BME280;20745;50.882;6.962;2022-12-31T03:00:12;99981.75;;;15.18;100.00
34500;BME280;20745;50.882;6.962;2022-12-31T03:02:58;99984.31;;;15.31;100.00
34500;BME280;20745;50.882;6.962;2022-12-31T03:05:26;99986.81;;;15.33;100.00
34500;BME280;20745;50.882;6.962;2022-12-31T03:07:54;99987.03;;;15.31;100.00
34500;BME280;20745;50.882;6.962;2022-12-31T03:10:20;99998.13;;;15.30;100.00
34500;BME280;20745;50.882;6.962;2022-12-31T03:12:47;100005.00;;;15.32;100.00
34500;BME280;20745;50.882;6.962;2022-12-31T03:15:15;99998.75;;;15.32;100.00
34500;BME280;20745;50.882;6.962;2022-12-31T03:20:18;100008.78;;;15.31;100.00
34500;BME280;20745;50.882;6.962;2022-12-31T03:23:05;100012.34;;;15.32;100.00
34500;BME280;20745;50.882;6.962;2022-12-31T03:25:31;100006.03;;;15.38;100.00
34500;BME280;20745;50.882;6.962;2022-12-31T03:27:59;99994.97;;;15.33;100.00
34500;BME280;20745;50.882;6.962;2022-12-31T03:30:26;99996.38;;;15.35;100.00
34500;BME280;20745;50.882;6.962;2022-12-31T03:32:53;100001.78;;;15.42;100.00
34500;BME280;20745;50.882;6.962;2022-12-31T03:35:21;99998.84;;;15.43;100.00
34500;BME280;20745;50.882;6.962;2022-12-31T03:37:48;100007.47;;;15.40;100.00
34500;BME280;20745;50.882;6.962;2022-12-31T03:40:16;100010.19;;;15.40;100.00
34500;BME280;20745;50.882;6.962;2022-12-31T03:42:43;100019.66;;;15.38;100.00
34500;BME280;20745;50.882;6.962;2022-12-31T03:45:09;100017.72;;;15.38;100.00
34500;BME280;20745;50.882;6.962;2022-12-31T03:47:36;100015.75;;;15.45;100.00
34500;BME280;20745;50.882;6.962;2022-12-31T03:50:03;100022.72;;;15.41;100.00
34500;BME280;20745;50.882;6.962;2022-12-31T03:52:30;100025.31;;;15.36;100.00
34500;BME280;20745;50.882;6.962;2022-12-31T03:54:57;100026.97;;;15.37;100.00
34500;BME280;20745;50.882;6.962;2022-12-31T03:57:23;100015.25;;;15.37;100.00
34500;BME280;20745;50.882;6.962;2022-12-31T03:59:49;100004.75;;;15.40;100.00
34500;BME280;20745;50.882;6.962;2022-12-31T04:02:16;100005.31;;;15.42;100.00
34500;BME280;20745;50.882;6.962;2022-12-31T04:04:45;100013.47;;;15.42;100.00
34500;BME280;20745;50.882;6.962;2022-12-31T04:07:11;99985.31;;;15.37;100.00
34500;BME280;20745;50.882;6.962;2022-12-31T04:09:37;99994.94;;;15.39;100.00
34500;BME280;20745;50.882;6.962;2022-12-31T04:12:04;99990.75;;;15.37;100.00
34500;BME280;20745;50.882;6.962;2022-12-31T04:14:30;99992.66;;;15.36;100.00
34500;BME280;20745;50.882;6.962;2022-12-31T04:16:57;99990.75;;;15.37;100.00
34500;BME280;20745;50.882;6.962;2022-12-31T04:19:23;100001.81;;;15.35;100.00
34500;BME280;20745;50.882;6.962;2022-12-31T04:21:50;100017.72;;;15.38;100.00
34500;BME280;20745;50.882;6.962;2022-12-31T04:24:16;100005.19;;;15.37;100.00
34500;BME280;20745;50.882;6.962;2022-12-31T04:26:43;100002.66;;;15.36;100.00
34500;BME280;20745;50.882;6.962;2022-12-31T04:29:09;100002.25;;;15.39;100.00
34500;BME280;20745;50.882;6.962;2022-12-31T04:31:36;100004.13;;;15.38;100.00
34500;BME280;20745;50.882;6.962;2022-12-31T04:34:02;100010.19;;;15.40;100.00
34500;BME280;20745;50.882;6.962;2022-12-31T04:36:29;100014.09;;;15.44;100.00
34500;BME280;20745;50.882;6.962;2022-12-31T04:38:55;100023.00;;;15.51;100.00
34500;BME280;20745;50.882;6.962;2022-12-31T04:41:22;100027.88;;;15.61;100.00
34500;BME280;20745;50.882;6.962;2022-12-31T04:43:50;100037.03;;;15.66;100.00
34500;BME280;20745;50.882;6.962;2022-12-31T04:46:18;100041.91;;;15.76;100.00
34500;BME280;20745;50.882;6.962;2022-12-31T04:48:45;100038.81;;;15.72;100.00
34500;BME280;20745;50.882;6.962;2022-12-31T04:51:12;100045.56;;;15.70;100.00
34500;BME280;20745;50.882;6.962;2022-12-31T04:53:41;100048.66;;;15.73;100.00
34500;BME280;20745;50.882;6.962;2022-12-31T04:56:08;100051.97;;;15.75;100.00
34500;BME280;20745;50.882;6.962;2022-12-31T04:58:35;100055.91;;;15.79;100.00
34500;BME280;20745;50.882;6.962;2022-12-31T05:01:02;100056.16;;;15.78;100.00
34500;BME280;20745;50.882;6.962;2022-12-31T05:03:29;100072.94;;;15.75;100.00
34500;BME280;20745;50.882;6.962;2022-12-31T05:06:00;100061.09;;;15.81;100.00
34500;BME280;20745;50.882;6.962;2022-12-31T05:08:26;100061.47;;;15.84;100.00
34500;BME280;20745;50.882;6.962;2022-12-31T05:10:53;100048.47;;;15.86;100.00
34500;BME280;20745;50.882;6.962;2022-12-31T05:13:19;100066.00;;;15.90;100.00
34500;BME280;20745;50.882;6.962;2022-12-31T05:15:45;100065.78;;;15.92;100.00
34500;BME280;20745;50.882;6.962;2022-12-31T05:18:12;100072.66;;;15.94;100.00
34500;BME280;20745;50.882;6.962;2022-12-31T05:20:39;100066.13;;;15.95;100.00
34500;BME280;20745;50.882;6.962;2022-12-31T05:23:06;100067.19;;;15.94;100.00
34500;BME280;20745;50.882;6.962;2022-12-31T05:25:32;100065.09;;;15.96;100.00
34500;BME280;20745;50.882;6.962;2022-12-31T05:27:59;100046.75;;;16.03;100.00
34500;BME280;20745;50.882;6.962;2022-12-31T05:30:25;100053.72;;;15.99;100.00
34500;BME280;20745;50.882;6.962;2022-12-31T05:32:52;100063.81;;;16.10;100.00
34500;BME280;20745;50.882;6.962;2022-12-31T05:35:18;100081.59;;;16.13;100.00
34500;BME280;20745;50.882;6.962;2022-12-31T05:37:44;100086.19;;;16.12;100.00
34500;BME280;20745;50.882;6.962;2022-12-31T05:40:11;100083.84;;;16.16;100.00
34500;BME280;20745;50.882;6.962;2022-12-31T05:42:38;100073.22;;;16.26;100.00
34500;BME280;20745;50.882;6.962;2022-12-31T05:45:04;100072.25;;;16.20;100.00
34500;BME280;20745;50.882;6.962;2022-12-31T05:47:31;100060.75;;;16.18;100.00
34500;BME280;20745;50.882;6.962;2022-12-31T05:49:57;100070.50;;;16.26;100.00
34500;BME280;20745;50.882;6.962;2022-12-31T05:52:24;100067.66;;;16.21;100.00
34500;BME280;20745;50.882;6.962;2022-12-31T05:54:50;100068.47;;;16.21;100.00
34500;BME280;20745;50.882;6.962;2022-12-31T05:57:16;100064.66;;;16.22;100.00
34500;BME280;20745;50.882;6.962;2022-12-31T05:59:43;100063.25;;;16.20;100.00
34500;BME280;20745;50.882;6.962;2022-12-31T06:02:09;100068.47;;;16.21;100.00
34500;BME280;20745;50.882;6.962;2022-12-31T06:04:36;100075.69;;;16.16;100.00
34500;BME280;20745;50.882;6.962;2022-12-31T06:07:02;100083.72;;;16.11;100.00
34500;BME280;20745;50.882;6.962;2022-12-31T06:09:28;100085.16;;;16.13;100.00
34500;BME280;20745;50.882;6.962;2022-12-31T06:11:55;100090.09;;;16.05;100.00
34500;BME280;20745;50.882;6.962;2022-12-31T06:14:26;100089.97;;;16.00;100.00
34500;BME280;20745;50.882;6.962;2022-12-31T06:16:52;100064.09;;;15.79;100.00
34500;BME280;20745;50.882;6.962;2022-12-31T06:19:18;100094.59;;;15.99;100.00
34500;BME280;20745;50.882;6.962;2022-12-31T06:21:45;100087.47;;;15.98;100.00
34500;BME280;20745;50.882;6.962;2022-12-31T06:24:11;100103.34;;;16.01;100.00
34500;BME280;20745;50.882;6.962;2022-12-31T06:26:38;100121.56;;;16.01;100.00
34500;BME280;20745;50.882;6.962;2022-12-31T06:29:04;100112.25;;;16.08;100.00
34500;BME280;20745;50.882;6.962;2022-12-31T06:31:31;100126.03;;;16.13;100.00
34500;BME280;20745;50.882;6.962;2022-12-31T06:33:57;100116.31;;;16.17;100.00
34500;BME280;20745;50.882;6.962;2022-12-31T06:36:24;100128.78;;;16.25;100.00
34500;BME280;20745;50.882;6.962;2022-12-31T06:38:52;100136.84;;;16.31;100.00
34500;BME280;20745;50.882;6.962;2022-12-31T06:41:18;100138.03;;;16.35;100.00
34500;BME280;20745;50.882;6.962;2022-12-31T06:43:44;100140.31;;;16.38;100.00
34500;BME280;20745;50.882;6.962;2022-12-31T06:46:12;100148.72;;;16.37;100.00
34500;BME280;20745;50.882;6.962;2022-12-31T06:48:39;100151.81;;;16.40;100.00
34500;BME280;20745;50.882;6.962;2022-12-31T06:51:09;100146.50;;;16.45;100.00
34500;BME280;20745;50.882;6.962;2022-12-31T06:53:42;100164.16;;;16.43;100.00
34500;BME280;20745;50.882;6.962;2022-12-31T06:56:12;100164.59;;;16.40;100.00
34500;BME280;20745;50.882;6.962;2022-12-31T06:58:39;100163.78;;;16.39;100.00
34500;BME280;20745;50.882;6.962;2022-12-31T07:03:55;100166.06;;;16.42;100.00
34500;BME280;20745;50.882;6.962;2022-12-31T07:06:33;100151.19;;;16.38;100.00
34500;BME280;20745;50.882;6.962;2022-12-31T07:11:38;100172.19;;;16.38;100.00
34500;BME280;20745;50.882;6.962;2022-12-31T07:21:58;100173.78;;;16.45;100.00
34500;BME280;20745;50.882;6.962;2022-12-31T07:24:25;100188.47;;;16.44;100.00
34500;BME280;20745;50.882;6.962;2022-12-31T07:27:07;100186.63;;;16.38;100.00
34500;BME280;20745;50.882;6.962;2022-12-31T07:34:52;100197.03;;;16.30;100.00
34500;BME280;20745;50.882;6.962;2022-12-31T07:37:26;100199.97;;;16.28;100.00
34500;BME280;20745;50.882;6.962;2022-12-31T07:47:39;100209.34;;;16.21;100.00
34500;BME280;20745;50.882;6.962;2022-12-31T07:50:10;100205.63;;;16.15;100.00
34500;BME280;20745;50.882;6.962;2022-12-31T07:52:39;100215.47;;;16.16;100.00
34500;BME280;20745;50.882;6.962;2022-12-31T07:55:05;100206.13;;;16.24;100.00
34500;BME280;20745;50.882;6.962;2022-12-31T07:57:33;100223.69;;;16.28;100.00
34500;BME280;20745;50.882;6.962;2022-12-31T08:00:05;100225.19;;;16.24;100.00
34500;BME280;20745;50.882;6.962;2022-12-31T08:05:07;100212.56;;;16.29;100.00
34500;BME280;20745;50.882;6.962;2022-12-31T08:10:23;100220.53;;;16.31;100.00
34500;BME280;20745;50.882;6.962;2022-12-31T08:12:54;100219.69;;;16.30;100.00
34500;BME280;20745;50.882;6.962;2022-12-31T08:15:23;100219.81;;;16.35;100.00
34500;BME280;20745;50.882;6.962;2022-12-31T08:17:55;100221.47;;;16.36;100.00
34500;BME280;20745;50.882;6.962;2022-12-31T08:20:22;100229.66;;;16.36;100.00
34500;BME280;20745;50.882;6.962;2022-12-31T08:25:19;100233.19;;;16.37;100.00
34500;BME280;20745;50.882;6.962;2022-12-31T08:30:15;100236.06;;;16.42;100.00
34500;BME280;20745;50.882;6.962;2022-12-31T08:33:16;100236.25;;;16.47;100.00
34500;BME280;20745;50.882;6.962;2022-12-31T08:40:47;100231.16;;;16.50;100.00
34500;BME280;20745;50.882;6.962;2022-12-31T08:45:50;100247.41;;;16.57;100.00
34500;BME280;20745;50.882;6.962;2022-12-31T08:48:24;100247.78;;;16.60;100.00
34500;BME280;20745;50.882;6.962;2022-12-31T08:50:52;100245.19;;;16.65;100.00
34500;BME280;20745;50.882;6.962;2022-12-31T08:53:19;100250.66;;;16.65;100.00
34500;BME280;20745;50.882;6.962;2022-12-31T08:55:48;100264.06;;;16.67;100.00
34500;BME280;20745;50.882;6.962;2022-12-31T09:00:50;100253.13;;;16.67;100.00
34500;BME280;20745;50.882;6.962;2022-12-31T09:05:56;100256.88;;;16.72;100.00
34500;BME280;20745;50.882;6.962;2022-12-31T09:09:27;100261.34;;;16.78;100.00
34500;BME280;20745;50.882;6.962;2022-12-31T09:11:24;100264.34;;;16.88;100.00
34500;BME280;20745;50.882;6.962;2022-12-31T09:14:11;100274.00;;;16.91;100.00
34500;BME280;20745;50.882;6.962;2022-12-31T09:19:11;100275.41;;;16.93;100.00
34500;BME280;20745;50.882;6.962;2022-12-31T09:21:39;100271.50;;;16.89;100.00
34500;BME280;20745;50.882;6.962;2022-12-31T09:24:06;100275.25;;;16.88;100.00
34500;BME280;20745;50.882;6.962;2022-12-31T09:27:21;100279.69;;;16.89;100.00
34500;BME280;20745;50.882;6.962;2022-12-31T09:29:28;100300.44;;;16.90;100.00
34500;BME280;20745;50.882;6.962;2022-12-31T09:32:03;100296.41;;;16.93;100.00
34500;BME280;20745;50.882;6.962;2022-12-31T09:34:35;100306.16;;;17.00;100.00
34500;BME280;20745;50.882;6.962;2022-12-31T09:37:10;100313.63;;;17.05;100.00
34500;BME280;20745;50.882;6.962;2022-12-31T09:39:40;100324.09;;;17.08;100.00
34500;BME280;20745;50.882;6.962;2022-12-31T09:42:35;100331.44;;;17.08;100.00
34500;BME280;20745;50.882;6.962;2022-12-31T09:47:54;100343.94;;;17.15;100.00
34500;BME280;20745;50.882;6.962;2022-12-31T09:55:47;100351.41;;;17.20;100.00
34500;BME280;20745;50.882;6.962;2022-12-31T10:00:57;100366.84;;;17.26;100.00
34500;BME280;20745;50.882;6.962;2022-12-31T10:09:02;100377.63;;;17.21;100.00
34500;BME280;20745;50.882;6.962;2022-12-31T10:11:43;100381.31;;;17.26;100.00
34500;BME280;20745;50.882;6.962;2022-12-31T10:24:45;100362.13;;;17.33;100.00
34500;BME280;20745;50.882;6.962;2022-12-31T10:27:26;100378.63;;;17.38;100.00
34500;BME280;20745;50.882;6.962;2022-12-31T10:30:11;100366.63;;;17.39;100.00
34500;BME280;20745;50.882;6.962;2022-12-31T10:35:20;100371.81;;;17.47;100.00
34500;BME280;20745;50.882;6.962;2022-12-31T10:43:50;100388.00;;;17.42;100.00
34500;BME280;20745;50.882;6.962;2022-12-31T10:51:53;100401.75;;;17.24;100.00
34500;BME280;20745;50.882;6.962;2022-12-31T11:02:58;100406.03;;;17.31;100.00
34500;BME280;20745;50.882;6.962;2022-12-31T11:05:25;100384.53;;;17.53;100.00
34500;BME280;20745;50.882;6.962;2022-12-31T11:08:08;100397.59;;;17.62;100.00
34500;BME280;20745;50.882;6.962;2022-12-31T11:16:14;100397.34;;;17.64;100.00
34500;BME280;20745;50.882;6.962;2022-12-31T11:21:30;100424.53;;;17.59;100.00
34500;BME280;20745;50.882;6.962;2022-12-31T11:24:17;100404.72;;;17.63;100.00
34500;BME280;20745;50.882;6.962;2022-12-31T11:32:06;100382.53;;;17.83;100.00
34500;BME280;20745;50.882;6.962;2022-12-31T11:34:49;100389.44;;;17.85;100.00
34500;BME280;20745;50.882;6.962;2022-12-31T11:37:26;100386.94;;;17.84;100.00
34500;BME280;20745;50.882;6.962;2022-12-31T11:40:07;100394.28;;;17.83;100.00
34500;BME280;20745;50.882;6.962;2022-12-31T11:42:47;100389.53;;;17.79;100.00
34500;BME280;20745;50.882;6.962;2022-12-31T11:47:50;100378.25;;;17.75;100.00
34500;BME280;20745;50.882;6.962;2022-12-31T11:58:35;100376.94;;;17.66;100.00
34500;BME280;20745;50.882;6.962;2022-12-31T12:03:29;100380.50;;;17.67;100.00
34500;BME280;20745;50.882;6.962;2022-12-31T12:05:56;100380.03;;;17.70;100.00
34500;BME280;20745;50.882;6.962;2022-12-31T12:08:23;100370.75;;;17.71;100.00
34500;BME280;20745;50.882;6.962;2022-12-31T12:10:51;100368.88;;;17.71;100.00
34500;BME280;20745;50.882;6.962;2022-12-31T12:13:20;100373.25;;;17.72;100.00
34500;BME280;20745;50.882;6.962;2022-12-31T12:15:47;100370.28;;;17.74;100.00
34500;BME280;20745;50.882;6.962;2022-12-31T12:18:25;100382.06;;;17.74;100.00
34500;BME280;20745;50.882;6.962;2022-12-31T12:20:59;100390.25;;;17.74;100.00
34500;BME280;20745;50.882;6.962;2022-12-31T12:23:26;100374.09;;;17.73;100.00
34500;BME280;20745;50.882;6.962;2022-12-31T12:25:53;100375.75;;;17.74;100.00
34500;BME280;20745;50.882;6.962;2022-12-31T12:28:20;100389.28;;;17.80;100.00
34500;BME280;20745;50.882;6.962;2022-12-31T12:33:23;100364.22;;;17.95;100.00
34500;BME280;20745;50.882;6.962;2022-12-31T12:35:50;100361.41;;;18.01;100.00
34500;BME280;20745;50.882;6.962;2022-12-31T12:38:17;100363.75;;;18.09;100.00
34500;BME280;20745;50.882;6.962;2022-12-31T12:41:00;100360.78;;;18.11;100.00
34500;BME280;20745;50.882;6.962;2022-12-31T12:43:32;100364.13;;;18.13;100.00
34500;BME280;20745;50.882;6.962;2022-12-31T12:46:00;100365.56;;;18.04;100.00
34500;BME280;20745;50.882;6.962;2022-12-31T12:48:36;100363.28;;;18.01;100.00
34500;BME280;20745;50.882;6.962;2022-12-31T12:51:22;100372.19;;;18.08;100.00
34500;BME280;20745;50.882;6.962;2022-12-31T12:53:54;100380.41;;;18.08;100.00
34500;BME280;20745;50.882;6.962;2022-12-31T13:17:06;100406.31;;;17.94;100.00
34500;BME280;20745;50.882;6.962;2022-12-31T13:25:02;100431.56;;;17.78;100.00
34500;BME280;20745;50.882;6.962;2022-12-31T13:27:39;100444.38;;;17.66;100.00
34500;BME280;20745;50.882;6.962;2022-12-31T13:33:01;100424.28;;;17.60;100.00
34500;BME280;20745;50.882;6.962;2022-12-31T13:35:33;100429.88;;;17.54;100.00
34500;BME280;20745;50.882;6.962;2022-12-31T13:38:22;100431.88;;;17.47;100.00
34500;BME280;20745;50.882;6.962;2022-12-31T13:43:39;100431.41;;;17.32;100.00
34500;BME280;20745;50.882;6.962;2022-12-31T13:46:37;100434.63;;;17.29;100.00
34500;BME280;20745;50.882;6.962;2022-12-31T13:49:15;100421.34;;;17.32;100.00
34500;BME280;20745;50.882;6.962;2022-12-31T13:51:48;100428.84;;;17.37;100.00
34500;BME280;20745;50.882;6.962;2022-12-31T13:56:42;100426.69;;;17.39;100.00
34500;BME280;20745;50.882;6.962;2022-12-31T13:59:21;100436.19;;;17.36;100.00
34500;BME280;20745;50.882;6.962;2022-12-31T14:01:54;100440.69;;;17.31;100.00
34500;BME280;20745;50.882;6.962;2022-12-31T14:04:38;100424.16;;;17.26;100.00
34500;BME280;20745;50.882;6.962;2022-12-31T14:07:21;100417.03;;;17.25;100.00
34500;BME280;20745;50.882;6.962;2022-12-31T14:09:54;100406.72;;;17.27;100.00
34500;BME280;20745;50.882;6.962;2022-12-31T14:15:25;100398.78;;;17.25;100.00
34500;BME280;20745;50.882;6.962;2022-12-31T14:23:20;100410.63;;;17.19;100.00
34500;BME280;20745;50.882;6.962;2022-12-31T14:25:50;100416.06;;;17.19;100.00
34500;BME280;20745;50.882;6.962;2022-12-31T14:28:25;100399.69;;;17.19;100.00
34500;BME280;20745;50.882;6.962;2022-12-31T14:30:55;100401.00;;;17.17;100.00
34500;BME280;20745;50.882;6.962;2022-12-31T14:34:12;100396.59;;;17.16;100.00
34500;BME280;20745;50.882;6.962;2022-12-31T14:46:49;100389.94;;;17.12;100.00
34500;BME280;20745;50.882;6.962;2022-12-31T14:52:18;100389.72;;;17.13;100.00
34500;BME280;20745;50.882;6.962;2022-12-31T14:54:56;100393.28;;;17.14;100.00
34500;BME280;20745;50.882;6.962;2022-12-31T14:57:23;100397.91;;;17.13;100.00
34500;BME280;20745;50.882;6.962;2022-12-31T14:59:56;100395.84;;;17.08;100.00
34500;BME280;20745;50.882;6.962;2022-12-31T15:02:32;100400.28;;;17.10;100.00
34500;BME280;20745;50.882;6.962;2022-12-31T15:05:08;100400.28;;;17.10;100.00
34500;BME280;20745;50.882;6.962;2022-12-31T15:13:12;100414.72;;;17.10;100.00
34500;BME280;20745;50.882;6.962;2022-12-31T15:15:35;100422.69;;;17.12;100.00
34500;BME280;20745;50.882;6.962;2022-12-31T15:18:10;100416.66;;;17.10;100.00
34500;BME280;20745;50.882;6.962;2022-12-31T15:23:21;100420.88;;;17.05;100.00
34500;BME280;20745;50.882;6.962;2022-12-31T15:25:49;100432.63;;;17.06;100.00
34500;BME280;20745;50.882;6.962;2022-12-31T15:33:33;100445.31;;;17.00;100.00
34500;BME280;20745;50.882;6.962;2022-12-31T15:36:35;100443.88;;;16.98;100.00
34500;BME280;20745;50.882;6.962;2022-12-31T15:39:40;100440.53;;;16.96;100.00
34500;BME280;20745;50.882;6.962;2022-12-31T15:41:45;100445.63;;;16.92;100.00
34500;BME280;20745;50.882;6.962;2022-12-31T15:44:42;100448.06;;;16.82;100.00
34500;BME280;20745;50.882;6.962;2022-12-31T15:50:16;100454.44;;;16.76;100.00
34500;BME280;20745;50.882;6.962;2022-12-31T15:52:46;100447.75;;;16.72;100.00
34500;BME280;20745;50.882;6.962;2022-12-31T15:55:18;100451.53;;;16.71;100.00
34500;BME280;20745;50.882;6.962;2022-12-31T15:57:47;100454.88;;;16.73;100.00
34500;BME280;20745;50.882;6.962;2022-12-31T16:02:41;100452.38;;;16.72;100.00
34500;BME280;20745;50.882;6.962;2022-12-31T16:05:18;100449.88;;;16.70;100.00
34500;BME280;20745;50.882;6.962;2022-12-31T16:07:45;100451.97;;;16.68;100.00
34500;BME280;20745;50.882;6.962;2022-12-31T16:10:29;100456.63;;;16.68;100.00
34500;BME280;20745;50.882;6.962;2022-12-31T16:12:56;100450.34;;;16.67;100.00
34500;BME280;20745;50.882;6.962;2022-12-31T16:15:25;100446.53;;;16.68;100.00
34500;BME280;20745;50.882;6.962;2022-12-31T16:20:25;100463.75;;;16.69;100.00
34500;BME280;20745;50.882;6.962;2022-12-31T16:22:53;100397.19;;;16.34;100.00
34500;BME280;20745;50.882;6.962;2022-12-31T16:25:22;100461.47;;;16.66;100.00
34500;BME280;20745;50.882;6.962;2022-12-31T16:27:58;100452.44;;;16.65;100.00
34500;BME280;20745;50.882;6.962;2022-12-31T16:30:27;100460.84;;;16.64;100.00
34500;BME280;20745;50.882;6.962;2022-12-31T16:32:56;100449.56;;;16.60;100.00
34500;BME280;20745;50.882;6.962;2022-12-31T16:35:27;100449.78;;;16.59;100.00
34500;BME280;20745;50.882;6.962;2022-12-31T16:40:27;100457.22;;;16.52;100.00
34500;BME280;20745;50.882;6.962;2022-12-31T16:42:53;100461.25;;;16.49;100.00
34500;BME280;20745;50.882;6.962;2022-12-31T16:45:33;100462.72;;;16.45;100.00
34500;BME280;20745;50.882;6.962;2022-12-31T16:50:45;100473.28;;;16.35;100.00